Time;durP1;ratioP1;P1;durP2;ratioP2;P2;SDS_P1;SDS_P2;PMS_P1;PMS_P2;Temp;Humidity;BMP_temperature;BMP_pressure;BME280_temperature;BME280_humidity;BME280_pressure;Samples;Min_cycle;Max_cycle;Signal;HPM_P1;HPM_P2
2023/07/20 00:01:26;;;;;;;0.28;0.28;;;;;;;12.82;100.00;99985.84;7398864;19;20011;-77
2023/07/20 00:03:55;;;;;;;0.95;0.50;;;;;;;12.80;100.00;99993.16;7394158;19;20441;-77
2023/07/20 00:06:23;;;;;;;0.57;0.30;;;;;;;12.84;100.00;99990.97;7396824;19;20017;-77
2023/07/20 00:08:49;;;;;;;1.35;0.70;;;;;;;12.87;100.00;99987.16;7399493;19;20022;-77
2023/07/20 00:11:16;;;;;;;0.52;0.30;;;;;;;12.75;100.00;99985.50;7402544;19;20027;-77
2023/07/20 00:13:42;;;;;;;0.40;0.38;;;;;;;12.78;100.00;99990.09;7397774;19;20026;-77
2023/07/20 00:16:08;;;;;;;2.92;0.85;;;;;;;12.83;100.00;99997.78;7396966;19;20014;-77
2023/07/20 00:18:34;;;;;;;0.40;0.40;;;;;;;12.86;100.00;99985.66;7396254;19;20475;-77
2023/07/20 00:21:01;;;;;;;3.15;0.73;;;;;;;12.89;100.00;99995.84;7401032;19;20032;-78
2023/07/20 00:23:27;;;;;;;0.40;0.40;;;;;;;12.85;100.00;100001.63;7399017;19;20414;-77
2023/07/20 00:25:54;;;;;;;0.75;0.40;;;;;;;12.86;100.00;100003.16;7397437;19;20014;-78
2023/07/20 00:28:20;;;;;;;0.38;0.38;;;;;;;12.80;100.00;100004.34;7396751;19;20099;-77
2023/07/20 00:30:48;;;;;;;1.40;0.70;;;;;;;12.79;100.00;100003.59;7398539;19;20018;-77
2023/07/20 00:33:17;;;;;;;1.20;0.93;;;;;;;12.75;100.00;100003.03;7396835;19;20043;-77
2023/07/20 00:35:44;;;;;;;0.82;0.40;;;;;;;12.69;100.00;100007.00;7398308;19;20023;-78
2023/07/20 00:38:10;;;;;;;0.63;0.30;;;;;;;12.72;100.00;99992.81;7393798;19;20018;-77
2023/07/20 00:40:40;;;;;;;0.43;0.38;;;;;;;12.74;100.00;100000.69;7397202;19;20017;-77
2023/07/20 00:43:08;;;;;;;0.60;0.50;;;;;;;12.78;100.00;99990.88;7398373;19;20014;-78
2023/07/20 00:45:36;;;;;;;1.20;0.40;;;;;;;12.82;100.00;99990.69;7396393;19;20018;-78
2023/07/20 00:48:04;;;;;;;0.52;0.52;;;;;;;12.83;100.00;99989.41;7395430;19;20480;-77
2023/07/20 00:50:32;;;;;;;0.60;0.60;;;;;;;12.83;100.00;99990.19;7396854;19;20027;-78
2023/07/20 00:52:58;;;;;;;0.20;0.20;;;;;;;12.83;100.00;99986.59;7396762;19;20018;-78
2023/07/20 00:55:25;;;;;;;0.45;0.43;;;;;;;12.83;100.00;99987.38;7396154;19;20334;-78
2023/07/20 00:57:53;;;;;;;0.40;0.30;;;;;;;12.79;100.00;99991.63;7395167;19;20014;-77
2023/07/20 01:00:19;;;;;;;2.45;0.90;;;;;;;12.80;100.00;99987.56;7394523;19;20656;-77
2023/07/20 01:02:46;;;;;;;0.85;0.80;;;;;;;12.80;100.00;99984.78;7393560;19;20503;-77
2023/07/20 01:05:16;;;;;;;0.50;0.50;;;;;;;12.83;100.00;99986.59;7394239;19;20018;-77
2023/07/20 01:08:15;;;;;;;1.30;0.75;;;;;;;12.85;100.00;99984.88;7393671;19;20129;-77
2023/07/20 01:10:54;;;;;;;0.65;0.55;;;;;;;12.84;100.00;99988.91;7397618;19;20475;-77
2023/07/20 01:13:22;;;;;;;0.75;0.45;;;;;;;12.84;100.00;99974.94;7397355;19;20022;-77
2023/07/20 01:15:56;;;;;;;0.95;0.77;;;;;;;12.89;100.00;99973.47;7397073;19;20079;-77
2023/07/20 01:18:22;;;;;;;1.60;0.60;;;;;;;12.89;100.00;99965.09;7395374;19;20030;-78
2023/07/20 01:20:49;;;;;;;2.97;0.93;;;;;;;12.97;100.00;99969.03;7398036;19;20047;-77
2023/07/20 01:23:34;;;;;;;0.55;0.55;;;;;;;13.00;100.00;99968.03;7397216;19;20018;-78
2023/07/20 01:26:38;;;;;;;0.85;0.50;;;;;;;13.00;100.00;99973.63;7395529;19;20022;-77
2023/07/20 01:29:42;;;;;;;0.68;0.60;;;;;;;12.95;100.00;99968.72;7397165;19;20368;-77
2023/07/20 01:32:10;;;;;;;0.82;0.70;;;;;;;13.01;100.00;99963.97;7398739;19;20018;-78
2023/07/20 01:34:37;;;;;;;2.50;0.80;;;;;;;12.92;100.00;99966.91;7396931;19;20488;-77
2023/07/20 01:37:06;;;;;;;0.85;0.68;;;;;;;13.01;100.00;99963.97;7394991;19;20098;-77
2023/07/20 01:39:33;;;;;;;4.32;1.08;;;;;;;13.00;100.00;99973.63;7392076;19;20039;-78
2023/07/20 01:41:59;;;;;;;1.33;0.45;;;;;;;12.98;100.00;99973.34;7395350;19;20468;-78
2023/07/20 01:44:27;;;;;;;1.25;0.40;;;;;;;12.97;100.00;99957.84;7393728;19;20246;-77
2023/07/20 01:46:53;;;;;;;4.07;1.02;;;;;;;13.00;100.00;99968.03;7393448;19;20520;-77
2023/07/20 01:49:19;;;;;;;2.90;0.90;;;;;;;12.97;100.00;99968.25;7396273;19;20014;-78
2023/07/20 01:51:45;;;;;;;0.47;0.47;;;;;;;12.95;100.00;99960.31;7397602;19;20014;-78
2023/07/20 01:54:11;;;;;;;0.68;0.40;;;;;;;12.98;100.00;99964.19;7394817;19;20015;-77
2023/07/20 01:56:37;;;;;;;1.42;0.45;;;;;;;12.96;100.00;99964.69;7395219;19;20020;-77
2023/07/20 01:59:05;;;;;;;5.95;1.33;;;;;;;13.02;100.00;99961.94;7391732;19;20352;-77
2023/07/20 02:01:31;;;;;;;0.77;0.40;;;;;;;12.98;100.00;99961.38;7394305;19;20052;-77
2023/07/20 02:03:57;;;;;;;1.35;0.95;;;;;;;12.95;100.00;99965.91;7393764;19;20034;-77
2023/07/20 02:06:23;;;;;;;0.50;0.50;;;;;;;12.98;100.00;99956.56;7392959;19;20018;-77
2023/07/20 02:08:49;;;;;;;3.58;0.60;;;;;;;12.94;100.00;99959.59;7395582;19;20026;-77
2023/07/20 02:11:15;;;;;;;4.53;0.50;;;;;;;12.92;100.00;99950.91;7395763;19;20038;-77
2023/07/20 02:13:41;;;;;;;0.35;0.28;;;;;;;12.99;100.00;99955.31;7395560;19;20010;-77
2023/07/20 02:16:07;;;;;;;1.75;0.60;;;;;;;12.99;100.00;99948.94;7393530;19;20094;-77
2023/07/20 02:18:35;;;;;;;0.77;0.73;;;;;;;12.97;100.00;99941.06;7389895;19;20010;-77
2023/07/20 02:21:02;;;;;;;0.63;0.47;;;;;;;13.00;100.00;99947.69;7395999;19;20033;-77
2023/07/20 02:23:28;;;;;;;1.30;0.43;;;;;;;13.01;100.00;99952.03;7395209;19;20014;-77
2023/07/20 02:25:54;;;;;;;2.85;1.23;;;;;;;12.95;100.00;99946.34;7394911;19;20019;-77
2023/07/20 02:28:20;;;;;;;1.45;0.70;;;;;;;12.97;100.00;99946.66;7394171;19;20421;-77
2023/07/20 02:30:46;;;;;;;1.70;1.45;;;;;;;12.90;100.00;99947.84;7393867;19;20030;-77
2023/07/20 02:33:12;;;;;;;0.70;0.60;;;;;;;12.89;100.00;99939.94;7394947;19;20037;-77
2023/07/20 02:35:40;;;;;;;1.85;1.05;;;;;;;12.90;100.00;99941.47;7393435;19;20045;-77
2023/07/20 02:38:06;;;;;;;0.80;0.63;;;;;;;12.83;100.00;99942.66;7391150;19;20023;-77
2023/07/20 02:40:32;;;;;;;0.98;0.50;;;;;;;12.80;100.00;99937.25;7390604;19;20025;-77
2023/07/20 02:42:59;;;;;;;1.77;0.93;;;;;;;12.76;100.00;99942.31;7390846;19;20049;-77
2023/07/20 02:45:25;;;;;;;2.35;0.88;;;;;;;12.77;100.00;99929.88;7391585;19;20010;-78
2023/07/20 02:47:51;;;;;;;0.52;0.32;;;;;;;12.77;100.00;99933.44;7392309;19;20014;-78
2023/07/20 02:50:18;;;;;;;1.88;0.93;;;;;;;12.72;100.00;99942.53;7394341;19;20021;-77
2023/07/20 02:52:45;;;;;;;1.85;0.55;;;;;;;12.69;100.00;99937.91;7392327;19;20475;-77
2023/07/20 02:55:11;;;;;;;1.23;0.50;;;;;;;12.72;100.00;99936.16;7393676;19;20014;-77
2023/07/20 02:57:37;;;;;;;0.98;0.70;;;;;;;12.77;100.00;99939.03;7389892;19;20018;-77
2023/07/20 03:00:07;;;;;;;1.60;0.65;;;;;;;12.83;100.00;99933.50;7390007;19;20562;-77
2023/07/20 03:02:33;;;;;;;0.80;0.80;;;;;;;12.83;100.00;99925.13;7390768;19;21080;-77
2023/07/20 03:05:01;;;;;;;1.70;0.57;;;;;;;12.82;100.00;99940.38;7389982;19;20014;-77
2023/07/20 03:07:28;;;;;;;3.22;0.55;;;;;;;12.79;100.00;99930.16;7390197;19;20014;-77
2023/07/20 03:09:55;;;;;;;1.52;0.68;;;;;;;12.81;100.00;99933.22;7393287;19;20026;-77
2023/07/20 03:12:21;;;;;;;3.75;1.08;;;;;;;12.87;100.00;99925.69;7391787;19;20013;-77
2023/07/20 03:14:48;;;;;;;2.03;1.00;;;;;;;12.88;100.00;99916.81;7395282;19;20025;-77
2023/07/20 03:17:14;;;;;;;1.33;0.40;;;;;;;12.93;100.00;99918.91;7389935;19;20021;-77
2023/07/20 03:19:40;;;;;;;2.05;0.95;;;;;;;12.91;100.00;99915.03;7389702;19;20510;-78
2023/07/20 03:22:06;;;;;;;4.10;1.58;;;;;;;12.95;100.00;99921.19;7391215;19;20025;-77
2023/07/20 03:24:33;;;;;;;0.70;0.47;;;;;;;12.96;100.00;99922.75;7395008;19;20466;-77
2023/07/20 03:26:59;;;;;;;0.55;0.55;;;;;;;13.03;100.00;99927.91;7394927;19;20365;-77
2023/07/20 03:29:25;;;;;;;2.47;0.80;;;;;;;13.07;100.00;99928.50;7390450;19;20405;-77
2023/07/20 03:31:51;;;;;;;0.95;0.65;;;;;;;13.10;100.00;99916.34;7388397;19;20022;-77
2023/07/20 03:34:18;;;;;;;1.25;0.80;;;;;;;13.16;100.00;99919.97;7390512;19;20028;-77
2023/07/20 03:36:44;;;;;;;4.60;0.80;;;;;;;13.18;100.00;99906.25;7389776;19;20056;-77
2023/07/20 03:39:12;;;;;;;1.35;0.82;;;;;;;13.24;100.00;99915.47;7393280;19;20026;-77
2023/07/20 03:41:38;;;;;;;4.30;1.05;;;;;;;13.29;100.00;99909.16;7389314;19;20472;-77
2023/07/20 03:44:04;;;;;;;0.68;0.50;;;;;;;13.31;100.00;99909.44;7389027;19;20106;-77
2023/07/20 03:46:31;;;;;;;0.82;0.52;;;;;;;13.37;100.00;99913.06;7389728;19;20039;-77
2023/07/20 03:48:57;;;;;;;1.20;1.02;;;;;;;13.45;100.00;99916.94;7390247;19;20034;-77
2023/07/20 03:51:24;;;;;;;3.70;0.82;;;;;;;13.46;100.00;99909.34;7394762;19;20441;-77
2023/07/20 03:53:50;;;;;;;3.53;1.23;;;;;;;13.52;100.00;99912.94;7390411;19;20022;-77
2023/07/20 03:56:16;;;;;;;4.53;0.65;;;;;;;13.54;100.00;99905.59;7390034;19;20018;-77
2023/07/20 03:58:42;;;;;;;2.22;0.65;;;;;;;13.56;100.00;99908.66;7389074;19;20018;-77
2023/07/20 04:01:09;;;;;;;0.80;0.73;;;;;;;13.61;100.00;99898.78;7391311;19;20469;-77
2023/07/20 04:03:36;;;;;;;4.10;1.17;;;;;;;13.65;100.00;99905.69;7391691;19;20010;-77
2023/07/20 04:06:02;;;;;;;1.23;0.40;;;;;;;13.67;100.00;99903.16;7391618;19;20322;-77
2023/07/20 04:08:28;;;;;;;2.45;0.40;;;;;;;13.66;100.00;99907.22;7391345;19;20035;-77
2023/07/20 04:10:54;;;;;;;3.70;1.05;;;;;;;13.69;100.00;99905.47;7389837;19;20032;-77
2023/07/20 04:13:22;;;;;;;2.22;1.02;;;;;;;13.66;100.00;99907.22;7390416;19;20091;-77
2023/07/20 04:15:48;;;;;;;0.68;0.30;;;;;;;13.71;100.00;99905.00;7389625;19;20539;-77
2023/07/20 04:18:14;;;;;;;2.83;1.17;;;;;;;13.71;100.00;99908.53;7388982;19;20018;-77
2023/07/20 04:20:40;;;;;;;1.80;0.55;;;;;;;13.77;100.00;99903.78;7391379;19;20292;-77
2023/07/20 04:23:07;;;;;;;1.95;1.25;;;;;;;13.77;100.00;99909.38;7391651;19;20463;-77
2023/07/20 04:25:38;;;;;;;2.17;0.95;;;;;;;13.79;100.00;99909.66;7389345;19;20479;-77
2023/07/20 04:28:09;;;;;;;1.58;1.48;;;;;;;13.82;100.00;99907.88;7387121;19;20456;-77
2023/07/20 04:30:39;;;;;;;2.38;1.42;;;;;;;13.87;100.00;99904.34;7388635;19;20090;-77
2023/07/20 04:33:06;;;;;;;1.75;1.40;;;;;;;13.94;100.00;99909.50;7389687;19;20023;-77
2023/07/20 04:35:53;;;;;;;0.50;0.30;;;;;;;13.97;100.00;99911.31;7389939;19;20018;-77
2023/07/20 04:38:32;;;;;;;1.77;0.38;;;;;;;13.99;100.00;99909.53;7389171;19;20018;-77
2023/07/20 04:41:06;;;;;;;3.20;1.25;;;;;;;14.00;100.00;99908.28;7389130;19;20089;-77
2023/07/20 04:43:42;;;;;;;2.28;1.10;;;;;;;14.00;100.00;99913.09;7396399;19;20524;-77
2023/07/20 04:46:10;;;;;;;5.30;1.00;;;;;;;14.03;100.00;99912.13;7395792;19;20083;-77
2023/07/20 04:48:36;;;;;;;3.22;1.05;;;;;;;14.03;100.00;99906.53;7397786;19;20018;-77
2023/07/20 04:51:03;;;;;;;1.55;0.77;;;;;;;14.01;100.00;99909.06;7397651;19;20078;-77
2023/07/20 04:53:30;;;;;;;4.85;1.60;;;;;;;14.09;100.00;99904.53;7396475;19;20007;-77
2023/07/20 04:55:57;;;;;;;0.98;0.57;;;;;;;14.07;100.00;99895.84;7396110;19;20014;-77
2023/07/20 04:58:24;;;;;;;5.65;1.38;;;;;;;14.07;100.00;99896.63;7393515;19;20373;-77
2023/07/20 05:00:52;;;;;;;2.42;1.35;;;;;;;14.05;100.00;99904.00;7398381;19;20018;-77
2023/07/20 05:03:19;;;;;;;2.55;0.73;;;;;;;14.08;100.00;99906.53;7396135;19;20014;-77
2023/07/20 05:05:48;;;;;;;0.75;0.60;;;;;;;14.19;100.00;99909.44;7395621;19;20488;-78
2023/07/20 05:08:14;;;;;;;0.60;0.60;;;;;;;14.27;100.00;99899.28;7396171;19;20464;-78
2023/07/20 05:10:40;;;;;;;0.57;0.43;;;;;;;14.30;100.00;99897.56;7395154;19;20475;-78
2023/07/20 05:13:07;;;;;;;2.42;1.27;;;;;;;14.33;100.00;99902.94;7397932;19;20014;-78
2023/07/20 05:15:34;;;;;;;4.00;1.17;;;;;;;14.39;100.00;99900.94;7395399;19;20011;-78
2023/07/20 05:18:01;;;;;;;2.50;0.98;;;;;;;14.51;100.00;99907.34;7393164;19;20019;-78
2023/07/20 05:20:28;;;;;;;0.85;0.77;;;;;;;14.51;100.00;99907.34;7393390;19;20006;-77
2023/07/20 05:22:54;;;;;;;0.85;0.85;;;;;;;14.60;100.00;99904.34;7393619;19;20370;-78
2023/07/20 05:25:22;;;;;;;1.50;1.23;;;;;;;14.71;100.00;99906.44;7397855;19;20015;-78
2023/07/20 05:27:48;;;;;;;4.32;1.08;;;;;;;14.75;100.00;99910.53;7394363;19;20022;-78
2023/07/20 05:30:14;;;;;;;1.40;0.68;;;;;;;14.75;100.00;99907.00;7396700;19;20078;-78
2023/07/20 05:32:41;;;;;;;0.40;0.30;;;;;;;14.90;100.00;99911.13;7396823;19;20021;-77
2023/07/20 05:35:08;;;;;;;3.22;1.08;;;;;;;14.92;100.00;99907.81;7396703;19;20011;-77
2023/07/20 05:37:34;;;;;;;0.75;0.30;;;;;;;14.97;100.00;99907.06;7397303;19;20025;-78
2023/07/20 05:40:00;;;;;;;1.10;0.88;;;;;;;15.06;100.00;99907.63;7393878;19;20029;-77
2023/07/20 05:42:26;;;;;;;1.45;1.02;;;;;;;15.10;100.00;99899.72;7394299;19;20010;-77
2023/07/20 05:44:53;;;;;;;2.95;0.93;;;;;;;15.18;100.00;99903.56;7393908;19;20015;-78
2023/07/20 05:47:20;;;;;;;1.33;0.95;;;;;;;15.29;100.00;99910.50;7393287;19;20025;-78
2023/07/20 05:49:46;;;;;;;1.70;1.15;;;;;;;15.34;100.00;99904.09;7399151;19;20038;-78
2023/07/20 05:52:12;;;;;;;3.20;0.77;;;;;;;15.34;100.00;99909.72;7396021;19;20030;-78
2023/07/20 05:54:38;;;;;;;3.30;1.08;;;;;;;15.39;100.00;99909.75;7394265;19;20021;-77
2023/07/20 05:57:04;;;;;;;2.67;1.08;;;;;;;15.43;100.00;99912.28;7392879;19;20018;-77
2023/07/20 05:59:31;;;;;;;4.30;0.98;;;;;;;15.47;100.00;99912.84;7395522;19;20018;-78
2023/07/20 06:01:57;;;;;;;2.88;0.88;;;;;;;15.53;100.00;99916.41;7393268;19;20014;-78
2023/07/20 06:04:23;;;;;;;2.55;0.38;;;;;;;15.64;100.00;99916.44;7391836;19;20018;-78
2023/07/20 06:06:49;;;;;;;1.10;0.82;;;;;;;15.79;100.00;99916.94;7390986;19;20505;-78
2023/07/20 06:09:16;;;;;;;0.63;0.35;;;;;;;15.88;100.00;99919.50;7397469;19;20592;-77
2023/07/20 06:11:42;;;;;;;2.65;1.17;;;;;;;15.98;100.00;99912.38;7395597;19;20358;-77
2023/07/20 06:14:08;;;;;;;1.10;0.35;;;;;;;16.11;100.00;99912.63;7395559;19;20018;-77
2023/07/20 06:16:34;;;;;;;1.58;1.00;;;;;;;16.13;100.00;99910.06;7394384;19;20044;-77
2023/07/20 06:19:00;;;;;;;2.75;1.00;;;;;;;16.18;100.00;99906.47;7395619;19;20014;-78
2023/07/20 06:21:26;;;;;;;3.42;0.98;;;;;;;16.34;100.00;99905.69;7391570;19;20125;-78
2023/07/20 06:23:52;;;;;;;2.38;1.00;;;;;;;16.37;100.00;99901.84;7394676;19;20086;-78
2023/07/20 06:26:19;;;;;;;5.70;1.05;;;;;;;16.42;100.00;99903.09;7391911;19;20038;-77
2023/07/20 06:28:45;;;;;;;1.58;0.95;;;;;;;16.44;100.00;99904.13;7394502;19;20013;-77
2023/07/20 06:31:12;;;;;;;1.90;1.10;;;;;;;16.46;100.00;99910.00;7396259;19;20031;-77
2023/07/20 06:33:38;;;;;;;3.13;1.20;;;;;;;16.59;100.00;99913.06;7392214;19;20022;-77
2023/07/20 06:36:04;;;;;;;1.15;0.43;;;;;;;16.61;100.00;99907.69;7392021;19;20030;-78
2023/07/20 06:38:30;;;;;;;2.25;1.10;;;;;;;16.53;100.00;99905.91;7391713;19;20036;-77
2023/07/20 06:40:56;;;;;;;4.68;0.57;;;;;;;16.58;100.00;99908.72;7392980;19;20086;-77
2023/07/20 06:43:22;;;;;;;0.80;0.65;;;;;;;16.64;100.00;99911.50;7393984;19;20011;-77
2023/07/20 06:45:53;;;;;;;4.35;1.35;;;;;;;16.81;100.00;99905.81;7393743;19;20021;-77
2023/07/20 06:48:19;;;;;;;2.03;0.63;;;;;;;16.72;100.00;99903.31;7394677;19;20021;-77
2023/07/20 06:50:45;;;;;;;4.57;1.17;;;;;;;16.78;100.00;99915.31;7393918;19;20010;-77
2023/07/20 06:53:11;;;;;;;7.70;1.25;;;;;;;16.77;100.00;99925.00;7392344;19;20031;-78
2023/07/20 06:55:38;;;;;;;2.72;1.35;;;;;;;16.81;100.00;99911.44;7392470;19;20129;-78
2023/07/20 06:58:04;;;;;;;1.17;0.52;;;;;;;16.91;100.00;99918.31;7390776;19;20019;-77
2023/07/20 07:00:30;;;;;;;1.92;0.73;;;;;;;16.98;100.00;99912.16;7390581;19;20366;-77
2023/07/20 07:02:56;;;;;;;1.67;0.65;;;;;;;17.39;100.00;99913.72;7395016;19;20073;-77
2023/07/20 07:05:22;;;;;;;1.27;0.30;;;;;;;17.34;100.00;99910.94;7391061;19;20044;-77
2023/07/20 07:07:48;;;;;;;3.40;0.82;;;;;;;17.72;100.00;99912.75;7391680;19;20027;-78
2023/07/20 07:10:15;;;;;;;3.03;1.27;;;;;;;17.88;100.00;99914.69;7391428;19;20029;-78
2023/07/20 07:12:41;;;;;;;2.13;0.50;;;;;;;17.43;100.00;99925.47;7392738;19;20423;-78
2023/07/20 07:15:07;;;;;;;2.30;1.30;;;;;;;17.58;100.00;99919.53;7395407;19;20018;-77
2023/07/20 07:17:35;;;;;;;1.27;0.80;;;;;;;17.88;100.00;99923.16;7391786;19;20020;-77
2023/07/20 07:20:01;;;;;;;8.23;1.80;;;;;;;18.03;100.00;99915.09;7391503;19;20035;-78
2023/07/20 07:22:27;;;;;;;2.45;0.57;;;;;;;18.03;100.00;99920.72;7390486;19;20043;-78
2023/07/20 07:24:53;;;;;;;3.17;1.25;;;;;;;18.03;100.00;99915.09;7391346;19;20493;-78
2023/07/20 07:27:20;;;;;;;3.00;0.88;;;;;;;17.97;100.00;99925.66;7394467;19;20023;-77
2023/07/20 07:29:46;;;;;;;2.78;1.35;;;;;;;17.92;100.00;99929.25;7391966;19;20019;-77
2023/07/20 07:32:12;;;;;;;7.88;1.50;;;;;;;17.93;100.00;99922.31;7392590;19;20019;-77
2023/07/20 07:34:39;;;;;;;6.32;0.90;;;;;;;18.00;100.00;99923.81;7392885;19;20478;-78
2023/07/20 07:37:05;;;;;;;6.65;0.98;;;;;;;17.99;100.00;99919.47;7389614;19;20011;-78
2023/07/20 07:39:31;;;;;;;1.15;0.40;;;;;;;18.21;100.00;99924.16;7394861;19;20006;-78
2023/07/20 07:41:57;;;;;;;1.15;0.93;;;;;;;17.90;100.00;99929.03;7390482;19;20403;-78
2023/07/20 07:44:24;;;;;;;1.73;0.70;;;;;;;17.80;100.00;99919.34;7390906;19;20041;-77
2023/07/20 07:46:50;;;;;;;13.52;0.60;;;;;;;17.80;100.00;99927.81;7391163;19;20082;-77
2023/07/20 07:49:16;;;;;;;0.73;0.73;;;;;;;17.88;100.00;99925.19;7391295;19;20369;-78
2023/07/20 07:51:42;;;;;;;2.35;0.65;;;;;;;17.93;100.00;99927.97;7393611;19;20010;-78
2023/07/20 07:54:08;;;;;;;3.13;0.82;;;;;;;18.00;100.00;99927.41;7390732;19;20011;-77
2023/07/20 07:56:35;;;;;;;1.40;0.73;;;;;;;18.09;100.00;99921.44;7391351;19;20019;-77
2023/07/20 07:59:01;;;;;;;4.85;0.90;;;;;;;18.24;100.00;99920.25;7389867;19;20010;-77
2023/07/20 08:01:27;;;;;;;0.93;0.75;;;;;;;18.34;100.00;99921.47;7393483;19;20015;-77
2023/07/20 08:03:53;;;;;;;4.60;0.43;;;;;;;18.48;100.00;99918.25;7391651;19;20086;-78
2023/07/20 08:06:19;;;;;;;1.35;0.57;;;;;;;18.54;100.00;99918.97;7391362;19;20015;-77
2023/07/20 08:08:45;;;;;;;3.67;1.30;;;;;;;18.42;100.00;99922.41;7391141;19;20026;-77
2023/07/20 08:11:11;;;;;;;1.08;0.63;;;;;;;18.61;100.00;99918.38;7393197;19;20011;-78
2023/07/20 08:13:37;;;;;;;2.47;0.38;;;;;;;18.72;100.00;99923.13;7389337;19;20014;-78
2023/07/20 08:16:04;;;;;;;2.10;0.90;;;;;;;18.76;100.00;99923.59;7390216;19;20014;-77
2023/07/20 08:18:31;;;;;;;2.65;0.60;;;;;;;18.89;100.00;99920.88;7396084;19;20014;-78
2023/07/20 08:20:57;;;;;;;2.15;0.80;;;;;;;18.92;100.00;99925.47;7398252;19;20330;-78
2023/07/20 08:23:23;;;;;;;2.72;0.63;;;;;;;19.01;100.00;99922.28;7400986;19;20006;-78
2023/07/20 08:25:49;;;;;;;1.98;0.60;;;;;;;19.14;100.00;99916.72;7399343;19;20489;-78
2023/07/20 08:28:16;;;;;;;3.83;1.30;;;;;;;19.20;100.00;99923.06;7398843;19;20038;-78
2023/07/20 08:30:43;;;;;;;4.00;0.85;;;;;;;19.17;100.00;99923.34;7397194;19;20010;-77
2023/07/20 08:33:10;;;;;;;3.53;1.00;;;;;;;19.26;100.00;99915.28;7396637;19;20479;-78
2023/07/20 08:35:37;;;;;;;1.60;0.70;;;;;;;19.20;100.00;99923.06;7399056;19;20105;-78
2023/07/20 08:38:04;;;;;;;3.08;1.05;;;;;;;19.25;100.00;99922.19;7394477;19;20082;-77
2023/07/20 08:40:32;;;;;;;2.15;0.73;;;;;;;19.38;100.00;99915.91;7395017;19;20018;-77
2023/07/20 08:43:00;;;;;;;4.30;0.85;;;;;;;19.52;100.00;99918.25;7395065;19;20036;-78
2023/07/20 08:45:31;;;;;;;3.17;1.05;;;;;;;19.63;100.00;99906.03;7392685;19;20018;-78
2023/07/20 08:48:03;;;;;;;2.75;0.93;;;;;;;19.79;100.00;99916.31;7396346;19;20022;-77
2023/07/20 08:50:31;;;;;;;3.05;1.13;;;;;;;19.93;100.00;99917.09;7398243;19;20472;-77
2023/07/20 08:52:58;;;;;;;0.98;0.52;;;;;;;20.13;100.00;99925.00;7396108;19;20027;-78
2023/07/20 08:55:28;;;;;;;8.48;1.67;;;;;;;20.23;100.00;99926.13;7396484;19;20018;-77
2023/07/20 08:57:56;;;;;;;4.40;1.20;;;;;;;20.39;100.00;99922.25;7396968;19;20029;-78
2023/07/20 09:00:24;;;;;;;2.45;1.23;;;;;;;20.64;100.00;99920.75;7393200;19;20029;-78
2023/07/20 09:02:52;;;;;;;3.78;1.05;;;;;;;20.35;100.00;99921.81;7393536;19;20019;-78
2023/07/20 09:05:19;;;;;;;3.97;1.33;;;;;;;20.25;100.00;99923.53;7393095;19;20022;-78
2023/07/20 09:07:45;;;;;;;4.93;0.80;;;;;;;20.14;100.00;99918.06;7392140;19;20027;-78
2023/07/20 09:10:12;;;;;;;3.92;1.02;;;;;;;20.12;100.00;99917.84;7397066;19;20010;-78
2023/07/20 09:12:41;;;;;;;1.63;0.70;;;;;;;20.23;100.00;99921.25;7397010;19;20522;-78
2023/07/20 09:15:09;;;;;;;4.28;1.23;;;;;;;20.18;100.00;99918.50;7395194;19;20044;-78
2023/07/20 09:17:35;;;;;;;0.90;0.85;;;;;;;20.13;100.00;99920.13;7395034;19;20036;-78
2023/07/20 09:20:08;;;;;;;2.83;1.15;;;;;;;20.13;100.00;99922.94;7392854;19;20026;-78
2023/07/20 09:22:34;;;;;;;2.22;0.93;;;;;;;20.14;100.00;99909.56;7397393;19;20029;-77
2023/07/20 09:25:00;;;;;;;7.57;1.20;;;;;;;20.19;100.00;99920.78;7394217;19;20022;-78
2023/07/20 09:27:36;;;;;;;2.47;0.93;;;;;;;20.30;100.00;99914.97;7392000;19;20536;-78
2023/07/20 09:30:02;;;;;;;2.25;1.52;;;;;;;20.45;100.00;99922.16;7392757;19;20018;-78
2023/07/20 09:32:28;;;;;;;2.65;1.20;;;;;;;20.58;100.00;99922.16;7394178;19;20015;-78
2023/07/20 09:34:54;;;;;;;5.30;1.52;;;;;;;20.69;100.00;99919.88;7399617;19;20483;-78
2023/07/20 09:37:22;;;;;;;2.03;0.95;;;;;;;20.73;100.00;99920.31;7393632;19;20019;-78
2023/07/20 09:39:51;;;;;;;2.92;1.08;;;;;;;20.73;100.00;99917.50;7392023;19;20098;-78
2023/07/20 09:42:18;;;;;;;5.15;1.13;;;;;;;20.86;100.00;99916.72;7393796;19;20367;-78
2023/07/20 09:44:44;;;;;;;5.13;2.30;;;;;;;20.90;100.00;99915.09;7391636;19;20100;-78
2023/07/20 09:47:10;;;;;;;4.57;1.23;;;;;;;21.07;100.00;99923.28;7397035;19;20374;-77
2023/07/20 09:49:43;;;;;;;3.40;1.27;;;;;;;21.09;100.00;99915.75;7395143;19;20038;-78
2023/07/20 09:52:11;;;;;;;2.92;0.93;;;;;;;21.18;100.00;99917.34;7395528;19;20089;-78
2023/07/20 09:54:39;;;;;;;3.38;1.48;;;;;;;21.25;100.00;99922.38;7396273;19;20014;-78
2023/07/20 09:57:08;;;;;;;5.35;1.25;;;;;;;21.29;100.00;99922.03;7392312;19;20479;-78
2023/07/20 09:59:35;;;;;;;3.30;0.88;;;;;;;21.35;100.00;99919.84;7398078;19;20094;-78
2023/07/20 10:02:04;;;;;;;2.67;1.23;;;;;;;21.22;100.00;99914.22;7393677;19;20018;-78
2023/07/20 10:04:34;;;;;;;1.53;0.67;;;;;;;21.42;100.00;99919.91;7393089;19;20018;-78
2023/07/20 10:07:05;;;;;;;4.75;1.23;;;;;;;21.33;100.00;99911.88;7391698;19;20022;-78
2023/07/20 10:09:32;;;;;;;3.75;1.45;;;;;;;21.37;100.00;99917.22;7394780;19;20019;-78
2023/07/20 10:11:59;;;;;;;3.58;1.42;;;;;;;21.47;100.00;99912.59;7397944;19;20022;-78
2023/07/20 10:14:30;;;;;;;7.07;1.58;;;;;;;21.41;100.00;99909.16;7396371;19;20018;-78
2023/07/20 10:17:01;;;;;;;3.60;1.73;;;;;;;21.67;100.00;99909.06;7393014;19;20457;-78
2023/07/20 10:19:41;;;;;;;2.47;1.33;;;;;;;21.63;100.00;99903.75;7394391;19;20010;-78
2023/07/20 10:22:26;;;;;;;2.63;1.58;;;;;;;21.80;100.00;99903.31;7392697;19;20022;-78
2023/07/20 10:24:54;;;;;;;7.25;1.67;;;;;;;21.84;100.00;99907.38;7393296;19;20015;-78
2023/07/20 10:27:20;;;;;;;4.57;1.35;;;;;;;21.98;100.00;99896.72;7392397;19;20425;-78
2023/07/20 10:29:48;;;;;;;1.63;1.15;;;;;;;22.03;100.00;99907.16;7395245;19;20035;-78
2023/07/20 10:32:14;;;;;;;3.45;1.48;;;;;;;22.00;100.00;99896.16;7394076;19;20504;-78
2023/07/20 10:34:40;;;;;;;6.57;2.03;;;;;;;22.17;100.00;99894.44;7394645;19;20471;-78
2023/07/20 10:37:07;;;;;;;2.03;0.98;;;;;;;22.29;100.00;99900.56;7394069;19;20021;-78
2023/07/20 10:39:34;;;;;;;2.47;1.25;;;;;;;22.24;100.00;99896.53;7391227;19;20361;-78
2023/07/20 10:42:07;;;;;;;4.32;1.20;;;;;;;22.27;100.00;99895.44;7390550;19;20022;-78
2023/07/20 10:44:34;;;;;;;4.63;1.10;;;;;;;22.33;100.00;99898.13;7392495;19;20014;-78
2023/07/20 10:47:02;;;;;;;3.85;1.58;;;;;;;22.28;100.00;99891.31;7393827;19;20025;-78
2023/07/20 10:49:29;;;;;;;7.43;1.95;;;;;;;22.31;100.00;99895.84;7393440;19;20010;-78
2023/07/20 10:52:00;;;;;;;1.45;0.60;;;;;;;22.32;100.00;99890.94;7392445;19;20014;-77
2023/07/20 10:54:26;;;;;;;9.02;2.72;;;;;;;22.16;100.00;99890.06;7394930;19;20078;-77
2023/07/20 10:56:52;;;;;;;3.88;0.93;;;;;;;22.17;100.00;99885.91;7394468;19;20470;-77
2023/07/20 10:59:24;;;;;;;7.57;1.05;;;;;;;22.27;100.00;99886.94;7390224;19;20019;-77
2023/07/20 11:01:59;;;;;;;2.33;1.30;;;;;;;22.23;100.00;99891.44;7391672;19;20018;-78
2023/07/20 11:04:40;;;;;;;3.17;1.20;;;;;;;22.04;100.00;99882.41;7391663;19;20746;-78
2023/07/20 11:07:06;;;;;;;;;;;;;;;21.95;100.00;99889.31;7393481;19;20022;-77
2023/07/20 11:09:37;;;;;;;4.45;1.10;;;;;;;22.09;100.00;99879.41;7390844;19;19918;-78
2023/07/20 11:12:14;;;;;;;8.75;1.15;;;;;;;22.21;100.00;99879.88;7390092;19;20018;-77
2023/07/20 11:14:53;;;;;;;3.55;1.50;;;;;;;22.22;100.00;99876.47;7391844;19;20042;-77
2023/07/20 11:17:22;;;;;;;3.13;0.77;;;;;;;22.15;100.00;99877.22;7389884;19;20018;-77
2023/07/20 11:19:49;;;;;;;3.90;1.35;;;;;;;22.09;100.00;99875.84;7394443;19;20487;-77
2023/07/20 11:22:17;;;;;;;1.80;0.85;;;;;;;22.08;100.00;99883.56;7391549;19;20469;-77
2023/07/20 11:24:43;;;;;;;4.30;1.08;;;;;;;22.14;100.00;99886.25;7393992;19;20354;-77
2023/07/20 11:27:10;;;;;;;4.82;1.55;;;;;;;22.44;100.00;99877.97;7391334;19;20104;-77